Time;durP1;ratioP1;P1;durP2;ratioP2;P2;SDS_P1;SDS_P2;PMS_P1;PMS_P2;Temp;Humidity;BMP_temperature;BMP_pressure;BME280_temperature;BME280_humidity;BME280_pressure;Samples;Min_cycle;Max_cycle;Signal;HPM_P1;HPM_P2
2020/12/15 00:01:06;;;;;;;6.88;3.58;;;;;;;-10.21;35.43;102657.06;4969613;28;20040;-82
2020/12/15 00:03:33;;;;;;;10.48;3.58;;;;;;;-11.49;35.80;102464.38;4950649;29;20076;-84
2020/12/15 00:06:03;;;;;;;4.78;3.03;;;;;;;-8.95;35.16;102871.44;4954662;29;20039;-84
2020/12/15 00:08:35;;;;;;;7.28;3.35;;;;;;;-9.14;35.93;102798.94;4954575;29;20016;-84
2020/12/15 00:11:10;;;;;;;6.80;3.58;;;;;;;-9.38;35.62;102801.78;4952308;29;20019;-83
2020/12/15 00:13:59;;;;;;;5.43;4.63;;;;;;;-10.71;35.30;102552.06;4981930;28;20059;-83
2020/12/15 00:16:47;;;;;;;2.20;1.60;;;;;;;-7.75;34.48;103033.44;4993526;28;20031;-85
2020/12/15 00:19:55;;;;;;;9.40;2.60;;;;;;;-10.74;35.06;102579.88;4964622;28;20030;-84
2020/12/15 00:23:05;;;;;;;11.55;5.38;;;;;;;-10.51;34.79;102590.50;4983586;28;20045;-85
2020/12/15 00:25:56;;;;;;;8.55;3.42;;;;;;;-11.05;34.55;102473.25;4964402;28;20035;-87
2020/12/15 00:28:59;;;;;;;12.63;4.32;;;;;;;-7.64;34.14;103015.91;4975799;28;20074;-84
2020/12/15 00:31:52;;;;;;;12.07;4.90;;;;;;;-7.75;34.33;103011.03;4981338;28;20015;-85
2020/12/15 00:34:49;;;;;;;2.03;1.48;;;;;;;-11.42;33.39;102428.44;4975412;28;20039;-85
2020/12/15 00:38:17;;;;;;;10.65;4.78;;;;;;;-11.98;34.69;102328.31;4973532;28;20035;-85
2020/12/15 00:41:29;;;;;;;12.20;4.18;;;;;;;-10.07;34.31;102670.72;4920781;29;20062;-85
2020/12/15 00:44:03;;;;;;;14.85;5.03;;;;;;;-11.69;34.48;102409.06;4930516;29;20075;-84
2020/12/15 00:46:53;;;;;;;11.82;5.25;;;;;;;-8.86;35.78;102781.56;4923933;29;20051;-84
2020/12/15 00:49:24;;;;;;;7.95;5.43;;;;;;;-8.94;35.60;102789.97;4920091;29;20091;-83
2020/12/15 00:51:57;;;;;;;9.90;3.85;;;;;;;-11.38;35.52;102406.94;4940977;29;20047;-83
2020/12/15 00:58:41;;;;;;;9.68;5.07;;;;;;;-7.66;35.03;103016.00;5062653;23;20045;-84
2020/12/15 01:01:12;;;;;;;12.90;5.25;;;;;;;-11.29;35.34;102377.09;4998773;28;20031;-85
2020/12/15 01:03:55;;;;;;;11.30;5.20;;;;;;;-11.07;34.78;102462.63;4984288;28;20041;-85
2020/12/15 01:07:11;;;;;;;14.05;4.55;;;;;;;-8.39;35.31;102899.28;4987863;28;20035;-84
2020/12/15 01:09:52;;;;;;;12.32;5.45;;;;;;;-9.39;35.97;102682.03;4983614;28;20014;-84
2020/12/15 01:12:44;;;;;;;25.75;7.80;;;;;;;-9.69;35.95;102572.56;5000181;28;20038;-84
2020/12/15 01:15:44;;;;;;;13.15;6.20;;;;;;;-6.84;34.90;103008.34;5001205;28;20061;-84
2020/12/15 01:18:48;;;;;;;15.90;6.25;;;;;;;-6.64;35.27;103001.06;4999783;28;20037;-85
2020/12/15 01:22:08;;;;;;;14.75;6.22;;;;;;;-6.80;34.96;103004.56;5000245;28;20066;-84
2020/12/15 01:33:23;;;;;;;11.73;4.25;;;;;;;-8.22;32.85;102811.59;6027609;23;20017;-85
2020/12/15 01:46:08;;;;;;;10.88;5.10;;;;;;;-7.26;35.13;103017.66;4982227;28;20038;-84
2020/12/15 01:48:42;;;;;;;14.77;6.50;;;;;;;-9.16;34.90;102635.31;4962834;28;20103;-84
2020/12/15 01:51:32;;;;;;;10.85;5.63;;;;;;;-6.97;33.80;102889.59;4966070;28;20019;-85
2020/12/15 01:54:17;;;;;;;12.05;5.13;;;;;;;-9.00;34.84;102694.50;4964295;29;20019;-84
2020/12/15 01:59:56;;;;;;;16.25;6.40;;;;;;;-10.24;34.89;102446.41;4981430;28;20054;-84
2020/12/15 02:02:28;;;;;;;14.50;6.68;;;;;;;-8.22;34.65;102776.66;4961112;28;20102;-86
2020/12/15 02:05:15;;;;;;;7.15;3.90;;;;;;;-6.77;33.60;103025.94;4946016;29;20075;-83
2020/12/15 02:08:02;;;;;;;14.57;5.22;;;;;;;-6.62;33.06;103001.84;4978828;29;20027;-84
2020/12/15 02:10:59;;;;;;;13.13;4.88;;;;;;;-8.74;32.90;102790.84;4952956;29;20038;-83
2020/12/15 02:13:36;;;;;;;;;;;;;;;-7.12;32.82;102993.63;4919738;29;20057;-84
2020/12/15 02:16:28;;;;;;;5.93;3.25;;;;;;;-7.27;33.35;102995.25;4920051;29;19900;-84
2020/12/15 02:19:16;;;;;;;13.90;4.88;;;;;;;-9.62;32.98;102502.47;4920394;29;20109;-84
2020/12/15 02:22:28;;;;;;;13.00;4.70;;;;;;;-7.13;34.24;102981.13;4919082;29;20031;-85
2020/12/15 02:25:09;;;;;;;15.40;4.65;;;;;;;-10.59;33.92;102459.66;4916943;29;20037;-85
2020/12/15 02:28:09;;;;;;;13.48;4.22;;;;;;;-10.45;33.80;102472.44;4921333;29;20063;-84
2020/12/15 02:31:09;;;;;;;12.02;4.68;;;;;;;-10.15;33.18;102501.38;4920413;29;20025;-85
2020/12/15 02:33:46;;;;;;;12.45;5.32;;;;;;;-7.67;33.59;102893.16;4919464;29;20104;-83
2020/12/15 02:39:35;;;;;;;11.05;5.55;;;;;;;-7.82;33.95;102784.53;4909193;29;20052;-84
2020/12/15 02:42:24;;;;;;;15.65;4.68;;;;;;;-10.43;35.13;102475.03;4905004;29;20096;-84
2020/12/15 02:45:17;;;;;;;16.25;5.05;;;;;;;-10.50;34.97;102421.75;4942034;28;20027;-84
2020/12/15 02:48:00;;;;;;;9.98;4.55;;;;;;;-10.03;34.39;102388.25;4960712;28;20040;-85
2020/12/15 02:50:39;;;;;;;11.63;5.47;;;;;;;-8.33;33.78;102760.22;4952373;28;20042;-84
2020/12/15 02:53:17;;;;;;;6.43;3.17;;;;;;;-8.59;34.86;102752.53;4958490;28;20024;-85
2020/12/15 02:55:50;;;;;;;7.63;2.97;;;;;;;-6.88;33.70;103037.25;4955250;28;20079;-85
2020/12/15 02:58:20;;;;;;;18.02;5.18;;;;;;;-10.42;34.18;102402.66;4978484;28;20038;-85
2020/12/15 03:01:07;;;;;;;7.78;3.67;;;;;;;-6.81;34.06;102948.06;4997060;28;20042;-85
2020/12/15 03:04:22;;;;;;;7.65;3.17;;;;;;;-6.99;34.95;102944.50;4981066;28;20031;-84
2020/12/15 03:07:09;;;;;;;10.55;4.85;;;;;;;-7.32;33.55;102857.34;4998798;28;20034;-84
2020/12/15 03:10:11;;;;;;;9.50;4.35;;;;;;;-7.96;33.35;102712.66;4998085;28;20039;-84
2020/12/15 03:13:02;;;;;;;7.50;3.22;;;;;;;-8.94;33.58;102517.03;4996222;28;20094;-84
2020/12/15 03:15:56;;;;;;;4.93;2.65;;;;;;;-9.32;33.54;102527.88;4996382;28;20034;-84
2020/12/15 03:18:58;;;;;;;11.77;3.42;;;;;;;-6.55;32.90;102913.47;4981503;28;20031;-84
2020/12/15 03:21:35;;;;;;;9.00;3.78;;;;;;;-8.34;33.32;102662.59;4997426;28;20022;-84
2020/12/15 03:24:12;;;;;;;14.95;4.28;;;;;;;-10.31;33.76;102369.97;4997198;28;20121;-84
2020/12/15 03:27:01;;;;;;;10.90;3.95;;;;;;;-6.63;34.35;102893.19;4996596;28;20054;-84
2020/12/15 03:29:47;;;;;;;6.25;3.05;;;;;;;-10.17;33.30;102391.59;4992748;28;20022;-85
2020/12/15 03:33:06;;;;;;;12.52;3.17;;;;;;;-9.53;33.77;102446.63;4995683;28;20027;-85
2020/12/15 03:36:03;;;;;;;7.32;2.60;;;;;;;-6.49;33.03;102895.13;4994561;28;20073;-85
2020/12/15 03:38:43;;;;;;;12.98;4.18;;;;;;;-8.45;34.05;102539.56;4997051;28;20035;-83
2020/12/15 03:41:23;;;;;;;5.82;3.05;;;;;;;-8.93;32.77;102387.22;4979438;28;20037;-83
2020/12/15 03:44:45;;;;;;;10.93;4.00;;;;;;;-7.72;32.94;102581.38;4980955;28;20043;-84
2020/12/15 03:47:41;;;;;;;7.55;4.13;;;;;;;-7.19;33.07;102652.97;4978444;28;20032;-85
2020/12/15 03:50:39;;;;;;;9.82;3.65;;;;;;;-5.96;33.77;102869.69;4963063;28;20023;-86
2020/12/15 03:53:50;;;;;;;4.95;3.33;;;;;;;-5.84;32.74;102890.56;4961859;28;20096;-84
2020/12/15 03:56:47;;;;;;;7.78;4.00;;;;;;;-9.45;32.77;102382.78;4948170;29;20015;-85
2020/12/15 04:03:22;;;;;;;;;;;;;;;;;;;;;
2020/12/15 04:09:12;;;;;;;5.95;3.08;;;;;;;-5.91;33.61;102852.31;5302748;23;20050;-83
2020/12/15 04:12:20;;;;;;;6.43;2.67;;;;;;;-9.29;33.89;102331.84;5030363;28;20094;-87
2020/12/15 04:15:18;;;;;;;5.18;2.85;;;;;;;-6.08;33.58;102876.69;4997971;28;20034;-84
2020/12/15 04:17:57;;;;;;;7.63;3.42;;;;;;;-6.31;35.24;102851.91;4981513;28;20047;-84
2020/12/15 04:21:13;;;;;;;8.23;3.38;;;;;;;-6.20;34.98;102856.69;5021274;28;20046;-84
2020/12/15 04:23:46;;;;;;;5.23;3.40;;;;;;;-6.20;34.66;102841.41;5002671;28;20027;-84
2020/12/15 04:26:20;;;;;;;10.15;4.45;;;;;;;-5.98;34.40;102831.16;5005380;28;20022;-83
2020/12/15 04:29:16;;;;;;;9.00;4.22;;;;;;;-7.95;34.91;102522.59;5001651;28;20050;-84
2020/12/15 04:32:12;;;;;;;7.43;3.25;;;;;;;-7.68;34.87;102563.22;5002579;28;20011;-85
2020/12/15 04:47:59;;;;;;;8.15;3.85;;;;;;;-5.83;35.89;102791.63;4922717;29;20083;-84
2020/12/15 04:50:34;;;;;;;4.20;2.72;;;;;;;-8.90;34.73;102304.78;4893582;29;20092;-85
2020/12/15 04:53:31;;;;;;;5.72;3.28;;;;;;;-8.02;34.92;102457.56;4921897;29;20103;-85
2020/12/15 04:56:29;;;;;;;7.45;3.58;;;;;;;-6.06;34.79;102801.97;4922123;29;20029;-85
2020/12/15 04:59:10;;;;;;;5.40;3.53;;;;;;;-6.08;34.85;102777.78;4917175;29;20136;-84
2020/12/15 05:01:45;;;;;;;5.97;3.60;;;;;;;-9.77;34.55;102222.59;4905478;29;20025;-84
2020/12/15 05:04:19;;;;;;;10.88;2.58;;;;;;;-8.08;34.69;102471.34;4921681;29;20128;-84
2020/12/15 05:07:07;;;;;;;10.85;5.30;;;;;;;-6.74;34.51;102645.03;4966189;28;20035;-84
2020/12/15 05:09:51;;;;;;;6.57;3.55;;;;;;;-8.57;34.46;102331.59;4964838;29;20038;-83
2020/12/15 05:12:30;;;;;;;9.27;4.15;;;;;;;-6.98;34.48;102559.31;4978577;29;20039;-84
2020/12/15 05:15:11;;;;;;;10.60;3.90;;;;;;;-5.52;34.45;102757.38;4964098;29;20031;-84
2020/12/15 05:18:39;;;;;;;10.00;4.78;;;;;;;-5.43;34.97;102755.94;4975689;29;20082;-84
2020/12/15 05:25:01;;;;;;;5.07;1.70;;;;;;;-8.58;34.25;102267.19;4981347;28;20042;-84
2020/12/15 05:27:31;;;;;;;6.35;3.05;;;;;;;-7.22;34.02;102500.56;4977572;29;20030;-83
2020/12/15 05:30:29;;;;;;;7.97;4.07;;;;;;;-8.20;34.17;102322.38;4959149;28;20078;-84
2020/12/15 05:33:09;;;;;;;13.50;3.80;;;;;;;-5.74;34.35;102744.31;4976822;29;20054;-85
2020/12/15 05:35:47;;;;;;;6.82;3.67;;;;;;;-5.75;34.48;102724.56;4948525;29;20027;-84
2020/12/15 05:38:45;;;;;;;5.88;3.05;;;;;;;-7.46;34.82;102492.94;4979980;28;20026;-85
2020/12/15 05:41:50;;;;;;;9.23;3.33;;;;;;;-7.38;35.17;102488.94;4994245;28;20062;-84
2020/12/15 05:44:42;;;;;;;7.22;3.30;;;;;;;-5.88;35.84;102729.84;5000309;28;20034;-83
2020/12/15 05:47:34;;;;;;;9.63;3.58;;;;;;;-7.16;35.68;102518.16;4999798;28;20023;-84
2020/12/15 05:50:18;;;;;;;5.10;3.17;;;;;;;-6.00;35.09;102781.81;4999054;28;20051;-85
2020/12/15 05:53:11;;;;;;;9.52;3.67;;;;;;;-5.74;35.46;102739.78;5000304;28;20025;-85
2020/12/15 05:55:40;;;;;;;8.80;2.70;;;;;;;-7.13;35.35;102518.00;5006677;28;20045;-86
2020/12/15 05:58:26;;;;;;;4.07;2.75;;;;;;;-6.93;35.87;102507.88;4992336;28;20102;-83
2020/12/15 06:00:55;;;;;;;5.53;3.33;;;;;;;-5.70;35.76;102717.03;5008211;28;20042;-84
2020/12/15 06:04:00;;;;;;;4.93;3.00;;;;;;;-5.79;35.34;102710.41;4996184;28;20031;-85
2020/12/15 06:06:39;;;;;;;5.65;3.75;;;;;;;-5.53;35.33;102705.22;4998010;28;20049;-84
2020/12/15 06:09:20;;;;;;;8.23;3.47;;;;;;;-5.65;35.17;102698.75;5014542;28;20054;-84
2020/12/15 06:11:53;;;;;;;14.98;5.32;;;;;;;-5.83;35.92;102740.38;5014398;28;20051;-84
2020/12/15 06:14:28;;;;;;;11.85;3.67;;;;;;;-7.03;35.41;102508.41;4996672;28;20033;-83
2020/12/15 06:17:25;;;;;;;11.18;4.28;;;;;;;-7.71;35.57;102402.03;5012367;28;20090;-85
2020/12/15 06:20:01;;;;;;;6.65;3.42;;;;;;;-9.06;35.72;102192.91;4997797;28;20058;-85
2020/12/15 06:22:44;;;;;;;8.50;2.72;;;;;;;-8.87;35.52;102179.31;4997652;28;20073;-84
2020/12/15 06:25:44;;;;;;;7.65;3.65;;;;;;;-8.35;35.95;102239.00;4996219;28;20041;-84
2020/12/15 06:28:16;;;;;;;7.95;3.90;;;;;;;-8.13;36.08;102299.56;4982121;28;20069;-85
2020/12/15 06:31:08;;;;;;;7.05;3.72;;;;;;;-5.45;36.15;102728.16;5012993;28;20049;-84
2020/12/15 06:33:38;;;;;;;9.73;3.25;;;;;;;-5.43;36.05;102702.81;5014115;28;20022;-84
2020/12/15 06:36:32;;;;;;;5.82;3.83;;;;;;;-8.58;36.06;102232.28;4997744;28;20027;-84
2020/12/15 06:39:20;;;;;;;7.20;3.45;;;;;;;-5.53;35.52;102704.34;4997659;28;20034;-84
2020/12/15 06:42:03;;;;;;;8.55;5.18;;;;;;;-7.45;35.99;102415.78;5002611;28;20051;-84
2020/12/15 06:45:12;;;;;;;11.90;4.57;;;;;;;-5.66;36.34;102710.50;4992932;28;20011;-84
2020/12/15 06:47:44;;;;;;;9.15;3.70;;;;;;;-6.60;35.95;102523.81;5009593;28;20024;-83
2020/12/15 06:50:17;;;;;;;15.70;4.53;;;;;;;-5.59;36.59;102721.78;4997655;28;20035;-83
2020/12/15 06:53:22;;;;;;;10.27;4.47;;;;;;;-8.03;36.10;102271.19;5013082;28;20098;-84
2020/12/15 06:56:09;;;;;;;9.70;3.10;;;;;;;-7.39;36.62;102377.72;4958358;29;20075;-84
2020/12/15 06:59:02;;;;;;;6.47;4.15;;;;;;;-7.45;35.39;102400.50;4995689;28;20058;-85
2020/12/15 07:04:20;;;;;;;7.07;3.28;;;;;;;-5.65;36.28;102696.03;5123328;23;20091;-82
2020/12/15 07:06:59;;;;;;;12.48;5.30;;;;;;;-7.34;36.45;102428.59;4960670;29;20035;-82
2020/12/15 07:09:29;;;;;;;12.90;4.53;;;;;;;-7.25;36.40;102456.81;4958807;29;20019;-82
2020/12/15 07:11:57;;;;;;;6.80;3.60;;;;;;;-7.01;36.38;102501.09;4968023;29;20008;-82
2020/12/15 07:14:31;;;;;;;10.55;4.32;;;;;;;-7.32;36.91;102456.31;4965719;29;20095;-82
2020/12/15 07:16:58;;;;;;;3.25;2.17;;;;;;;-6.79;36.33;102516.00;4948092;29;20142;-82
2020/12/15 07:20:02;;;;;;;13.15;4.32;;;;;;;-7.74;35.81;102400.38;4969153;28;20058;-84
2020/12/15 07:23:29;;;;;;;6.90;3.53;;;;;;;-5.74;36.75;102709.22;4977528;28;20046;-84
2020/12/15 07:26:16;;;;;;;8.88;3.70;;;;;;;-5.81;37.08;102711.44;4961884;28;20027;-84
2020/12/15 07:28:50;;;;;;;7.57;4.15;;;;;;;-8.12;36.68;102299.50;4969064;28;20008;-84
2020/12/15 07:31:33;;;;;;;7.35;4.68;;;;;;;-6.99;36.82;102490.25;4967719;28;20035;-85
2020/12/15 07:34:20;;;;;;;;;;;;;;;-5.66;36.75;102702.41;4977390;28;20019;-84
2020/12/15 07:37:21;;;;;;;16.45;3.80;;;;;;;-5.82;36.81;102704.31;4974005;29;19922;-85
2020/12/15 07:40:43;;;;;;;5.85;3.58;;;;;;;-8.20;36.79;102343.88;4953515;28;20055;-84
2020/12/15 07:43:35;;;;;;;11.23;3.95;;;;;;;-9.14;36.30;102165.63;4960594;28;20039;-84
2020/12/15 07:46:23;;;;;;;10.05;4.35;;;;;;;-7.62;36.15;102431.06;4969975;29;20047;-83
2020/12/15 07:48:57;;;;;;;13.48;4.50;;;;;;;-8.25;36.66;102319.97;4970026;29;20035;-84
2020/12/15 07:51:28;;;;;;;8.93;4.07;;;;;;;-6.38;36.48;102624.06;4971905;29;20119;-83
2020/12/15 07:54:03;;;;;;;6.50;4.15;;;;;;;-7.46;36.99;102478.63;4957916;29;20016;-83
2020/12/15 07:57:02;;;;;;;9.15;3.95;;;;;;;-8.20;37.24;102365.38;4963442;29;20047;-84
2020/12/15 07:59:33;;;;;;;11.25;5.32;;;;;;;-7.98;37.70;102391.91;4951813;29;20012;-83
2020/12/15 08:02:01;;;;;;;7.50;2.95;;;;;;;-5.85;37.09;102717.97;4944865;28;20024;-84
2020/12/15 08:04:30;;;;;;;12.00;3.60;;;;;;;-6.08;38.24;102731.06;4953034;29;20043;-82
2020/12/15 08:07:00;;;;;;;9.55;4.32;;;;;;;-7.66;37.62;102429.53;4960030;28;20110;-82
2020/12/15 08:09:32;;;;;;;9.07;4.50;;;;;;;-8.58;38.09;102289.56;4961681;29;20024;-83
2020/12/15 08:12:10;;;;;;;10.82;3.88;;;;;;;-6.40;37.01;102629.56;4974616;28;20043;-82
2020/12/15 08:14:50;;;;;;;9.75;4.50;;;;;;;-6.08;37.54;102723.84;4971409;28;20055;-83
2020/12/15 08:17:22;;;;;;;4.30;3.08;;;;;;;-7.88;37.47;102382.38;4956550;29;20603;-83
2020/12/15 08:20:11;;;;;;;11.68;5.05;;;;;;;-5.74;37.80;102718.22;4972827;28;20094;-82
2020/12/15 08:22:48;;;;;;;11.93;4.47;;;;;;;-7.68;37.69;102380.31;4968516;28;20043;-81
2020/12/15 08:25:50;;;;;;;6.70;3.97;;;;;;;-7.67;38.22;102400.03;4944064;29;20035;-83
2020/12/15 08:29:07;;;;;;;11.60;4.78;;;;;;;-5.54;38.13;102713.41;4981249;28;20042;-83
2020/12/15 08:32:06;;;;;;;12.77;5.22;;;;;;;-5.96;38.28;102719.50;4978874;28;20099;-83
2020/12/15 08:35:06;;;;;;;11.32;4.43;;;;;;;-5.99;39.67;102718.81;4978932;28;20100;-84
2020/12/15 08:38:26;;;;;;;8.05;4.18;;;;;;;-7.50;38.44;102385.59;4999055;28;20106;-83
2020/12/15 08:40:58;;;;;;;8.88;5.05;;;;;;;-8.81;38.66;102238.03;4994067;28;20046;-83
2020/12/15 08:46:19;;;;;;;11.68;4.70;;;;;;;-9.23;39.44;102210.81;4968991;23;20200;-84
2020/12/15 08:48:57;;;;;;;11.68;4.25;;;;;;;-7.78;39.26;102430.22;4955557;28;20043;-82
2020/12/15 08:52:10;;;;;;;10.65;3.85;;;;;;;-5.93;40.13;102718.47;4935055;29;20012;-84
2020/12/15 08:55:00;;;;;;;7.88;4.97;;;;;;;-6.20;40.84;102663.41;4926646;28;20070;-82
2020/12/15 08:57:39;;;;;;;10.65;4.30;;;;;;;-7.84;40.87;102421.56;4912827;28;20039;-84
2020/12/15 09:08:21;;;;;;;7.93;4.63;;;;;;;-7.74;43.17;102448.78;5978306;23;20022;-83
2020/12/15 09:14:01;;;;;;;8.13;3.88;;;;;;;-9.24;43.68;102205.50;5181854;23;20049;-83
2020/12/15 09:16:42;;;;;;;10.95;4.93;;;;;;;-8.25;43.59;102384.47;5013022;28;20018;-85
2020/12/15 09:19:26;;;;;;;14.43;4.75;;;;;;;-6.48;44.03;102656.97;4961830;28;20416;-83
2020/12/15 09:22:01;;;;;;;6.15;3.38;;;;;;;-9.14;43.72;102203.19;4989901;28;20022;-82
2020/12/15 09:24:30;;;;;;;11.68;5.47;;;;;;;-6.67;44.45;102659.03;5009334;28;20030;-82
2020/12/15 09:26:59;;;;;;;16.13;5.00;;;;;;;-6.55;44.09;102623.25;5010082;28;20034;-82
2020/12/15 09:29:28;;;;;;;7.47;5.28;;;;;;;-5.82;44.82;102752.88;5012452;28;20030;-84
2020/12/15 09:31:59;;;;;;;8.00;5.65;;;;;;;-6.02;45.02;102768.44;4992902;28;20030;-83
2020/12/15 09:34:35;;;;;;;11.75;4.43;;;;;;;-5.81;44.29;102792.41;4989979;28;20057;-83
2020/12/15 09:37:03;;;;;;;9.15;4.50;;;;;;;-6.14;44.86;102716.13;5011893;28;20046;-83
2020/12/15 09:39:39;;;;;;;11.43;4.38;;;;;;;-6.91;44.40;102578.66;5000336;28;20061;-82
2020/12/15 09:42:13;;;;;;;12.60;4.97;;;;;;;-6.54;45.32;102676.19;5007869;28;20025;-82
2020/12/15 09:45:06;;;;;;;13.05;5.45;;;;;;;-5.79;44.93;102772.47;5070063;23;20061;-83
2020/12/15 09:47:51;;;;;;;12.88;5.90;;;;;;;-6.20;45.26;102727.25;5015599;28;20030;-79
2020/12/15 09:50:18;;;;;;;7.15;3.95;;;;;;;-7.91;45.54;102455.13;5017189;28;20025;-84
2020/12/15 09:52:48;;;;;;;10.68;4.93;;;;;;;-7.38;45.11;102538.25;5010395;28;20022;-81
2020/12/15 09:55:17;;;;;;;11.75;6.80;;;;;;;-7.50;45.75;102512.06;5023815;28;20057;-81
2020/12/15 09:57:49;;;;;;;11.40;5.22;;;;;;;-7.56;45.69;102532.09;5026068;28;20034;-83
2020/12/15 10:05:59;;;;;;;11.52;5.25;;;;;;;-6.53;46.67;102713.00;5605898;23;20066;-83
2020/12/15 10:08:31;;;;;;;8.60;4.55;;;;;;;-6.13;47.48;102752.06;4970287;28;20106;-82
2020/12/15 10:11:25;;;;;;;13.65;6.40;;;;;;;-5.96;47.83;102816.63;4976167;28;20042;-82
2020/12/15 10:13:56;;;;;;;9.52;4.55;;;;;;;-7.76;48.07;102517.06;4969275;28;20055;-82
2020/12/15 10:32:14;;;;;;;11.57;4.65;;;;;;;-5.82;47.94;102801.44;5187087;23;20069;-85
2020/12/15 11:37:00;;;;;;;12.32;5.05;;;;;;;-6.13;51.74;102808.69;5414142;23;20057;-84
2020/12/15 21:57:07;;;;;;;8.85;4.25;;;;;;;-10.93;38.34;102405.84;5122023;23;20113;-82
2020/12/15 22:32:53;;;;;;;9.93;4.38;;;;;;;-8.14;38.28;102871.22;5743153;23;20050;-81
2020/12/15 22:38:46;;;;;;;6.85;3.17;;;;;;;-8.03;37.76;102864.47;5360884;23;20039;-84
2020/12/15 22:41:20;;;;;;;10.82;4.32;;;;;;;-10.05;38.72;102584.91;5003524;28;20042;-82
2020/12/15 22:43:47;;;;;;;7.47;3.75;;;;;;;-8.60;38.55;102807.19;5000660;28;20093;-81
